Time;durP1;ratioP1;P1;durP2;ratioP2;P2;SDS_P1;SDS_P2;PMS_P1;PMS_P2;Temp;Humidity;BMP_temperature;BMP_pressure;BME280_temperature;BME280_humidity;BME280_pressure;Samples;Min_cycle;Max_cycle;Signal;HPM_P1;HPM_P2
2021/12/03 00:00:26;;;;;;;11.10;4.80;;;-0.60;99.90;;;;;;4994889;28;20262;-53
2021/12/03 00:02:54;;;;;;;6.47;4.57;;;-0.60;99.90;;;;;;4994555;28;20195;-55
2021/12/03 00:05:23;;;;;;;9.17;5.30;;;-0.70;99.90;;;;;;4994856;28;20238;-53
2021/12/03 00:07:51;;;;;;;7.27;4.27;;;-0.70;99.90;;;;;;4993833;28;20207;-54
2021/12/03 00:10:22;;;;;;;6.20;3.37;;;-0.80;99.90;;;;;;4994306;28;20319;-54
2021/12/03 00:12:51;;;;;;;5.57;3.03;;;-0.80;99.90;;;;;;4993995;28;20207;-54
2021/12/03 00:15:23;;;;;;;4.77;2.87;;;-0.70;99.90;;;;;;4994514;28;20286;-52
2021/12/03 00:17:51;;;;;;;3.50;2.67;;;-0.80;99.90;;;;;;4994605;28;20243;-53
2021/12/03 00:20:19;;;;;;;4.43;2.73;;;-0.80;99.90;;;;;;4993576;28;20265;-52
2021/12/03 00:22:50;;;;;;;6.13;3.17;;;-0.80;99.90;;;;;;4994502;28;20247;-53
2021/12/03 00:25:18;;;;;;;4.03;2.90;;;-0.80;99.90;;;;;;4993883;28;20641;-53
2021/12/03 00:27:46;;;;;;;7.13;3.20;;;-0.80;99.90;;;;;;4993896;28;20243;-53
2021/12/03 00:30:17;;;;;;;4.30;2.53;;;-0.90;99.90;;;;;;4993822;28;20310;-53
2021/12/03 00:32:48;;;;;;;4.80;2.90;;;-0.90;99.90;;;;;;4993803;28;20647;-55
2021/12/03 00:35:17;;;;;;;3.70;2.70;;;-0.90;99.90;;;;;;4993679;28;20231;-54
2021/12/03 00:37:47;;;;;;;3.60;2.83;;;-0.90;99.90;;;;;;4994199;28;20230;-53
2021/12/03 00:40:18;;;;;;;4.13;2.77;;;-0.90;99.90;;;;;;4993285;28;20744;-53
2021/12/03 00:42:47;;;;;;;3.83;2.73;;;-1.00;99.90;;;;;;4993724;28;20255;-53
2021/12/03 00:45:15;;;;;;;3.07;2.57;;;-1.00;99.90;;;;;;4993814;28;20370;-53
2021/12/03 00:47:44;;;;;;;4.37;3.17;;;-1.00;99.90;;;;;;4993623;28;20258;-53
2021/12/03 00:50:17;;;;;;;15.73;5.87;;;-1.10;99.90;;;;;;4993027;28;20891;-52
2021/12/03 00:52:46;;;;;;;8.23;4.67;;;-1.10;99.90;;;;;;4993383;28;20235;-53
2021/12/03 00:55:15;;;;;;;8.53;5.30;;;-1.10;99.90;;;;;;4993970;28;20338;-53
2021/12/03 00:57:43;;;;;;;4.63;3.70;;;-1.10;99.90;;;;;;4992839;28;20644;-52
2021/12/03 01:00:15;;;;;;;5.03;3.50;;;-1.20;99.90;;;;;;4993457;28;20274;-54
2021/12/03 01:02:44;;;;;;;3.60;3.00;;;-1.20;99.90;;;;;;4993046;28;20630;-54
2021/12/03 01:05:14;;;;;;;3.73;2.80;;;-1.20;99.90;;;;;;4993764;28;20215;-53
2021/12/03 01:07:42;;;;;;;5.07;3.40;;;-1.20;99.90;;;;;;4993151;28;20240;-53
2021/12/03 01:10:10;;;;;;;8.03;4.20;;;-1.20;99.90;;;;;;4993118;28;20379;-53
2021/12/03 01:12:39;;;;;;;5.57;3.33;;;-1.20;99.90;;;;;;4992728;28;20585;-54
2021/12/03 01:15:11;;;;;;;6.77;3.23;;;-1.30;99.90;;;;;;4993356;28;20231;-53
2021/12/03 01:17:39;;;;;;;4.40;3.37;;;-1.30;99.90;;;;;;4993196;28;20252;-54
2021/12/03 01:20:09;;;;;;;5.07;3.17;;;-1.30;99.90;;;;;;4993053;28;20318;-53
2021/12/03 01:22:39;;;;;;;6.13;3.10;;;-1.40;99.90;;;;;;4973630;28;20208;-54
2021/12/03 01:25:09;;;;;;;6.70;3.17;;;-1.40;99.90;;;;;;4973536;28;20216;-53
2021/12/03 01:27:38;;;;;;;4.07;3.30;;;-1.40;99.90;;;;;;4973443;28;20682;-54
2021/12/03 01:30:11;;;;;;;4.83;2.90;;;-1.40;99.90;;;;;;4973303;28;20367;-54
2021/12/03 01:32:39;;;;;;;5.43;3.07;;;-1.40;99.90;;;;;;4973778;28;20564;-52
2021/12/03 01:35:09;;;;;;;44.83;14.87;;;-1.40;99.90;;;;;;4977115;28;20234;-53
2021/12/03 01:37:38;;;;;;;4.10;3.00;;;-1.50;99.90;;;;;;4992597;28;20735;-53
2021/12/03 01:40:12;;;;;;;4.60;3.30;;;-1.50;99.90;;;;;;4992666;28;20266;-53
2021/12/03 01:42:41;;;;;;;4.00;3.23;;;-1.60;99.90;;;;;;4992496;28;20254;-54
2021/12/03 01:45:10;;;;;;;3.97;2.87;;;-1.60;99.90;;;;;;4992627;28;20266;-53
2021/12/03 01:47:40;;;;;;;4.87;3.40;;;-1.60;99.90;;;;;;4992788;28;20218;-53
2021/12/03 01:50:08;;;;;;;5.93;3.23;;;-1.60;99.90;;;;;;4992155;28;20339;-54
2021/12/03 01:52:38;;;;;;;6.07;3.40;;;-1.60;99.90;;;;;;4992306;28;20239;-54
2021/12/03 01:55:10;;;;;;;5.90;3.80;;;-1.60;99.90;;;;;;4992513;28;20690;-54
2021/12/03 01:57:39;;;;;;;3.50;3.20;;;-1.70;99.90;;;;;;4992036;28;20641;-54
2021/12/03 02:00:11;;;;;;;4.60;3.23;;;-1.70;99.90;;;;;;4992329;28;20266;-54
2021/12/03 02:02:40;;;;;;;5.47;3.27;;;-1.70;99.90;;;;;;4992472;28;20203;-53
2021/12/03 02:05:09;;;;;;;7.27;3.47;;;-1.70;99.90;;;;;;4992149;28;20574;-52
2021/12/03 02:07:39;;;;;;;6.10;3.57;;;-1.70;99.90;;;;;;4992098;28;20235;-52
2021/12/03 02:10:08;;;;;;;4.90;3.43;;;-1.70;99.90;;;;;;4992362;28;20290;-53
2021/12/03 02:12:36;;;;;;;4.60;3.33;;;-1.70;99.90;;;;;;4991860;28;20294;-54
2021/12/03 02:15:05;;;;;;;8.47;3.90;;;-1.80;99.90;;;;;;4992104;28;20253;-53
2021/12/03 02:17:33;;;;;;;4.90;3.30;;;-1.80;99.90;;;;;;4992217;28;20293;-54
2021/12/03 02:20:02;;;;;;;7.47;3.53;;;-1.80;99.90;;;;;;4992049;28;20227;-54
2021/12/03 02:22:32;;;;;;;23.03;8.67;;;-1.80;99.90;;;;;;4991780;28;20238;-53
2021/12/03 02:25:00;;;;;;;24.17;9.50;;;-1.80;99.90;;;;;;4991963;28;20238;-54
2021/12/03 02:27:28;;;;;;;5.07;3.60;;;-1.80;99.90;;;;;;4991786;28;20253;-54
2021/12/03 02:29:56;;;;;;;6.77;3.50;;;-1.80;99.90;;;;;;4991480;28;20272;-53
2021/12/03 02:32:24;;;;;;;4.77;3.50;;;-1.90;99.90;;;;;;4991282;28;20265;-52
2021/12/03 02:34:52;;;;;;;8.27;3.70;;;-1.90;99.90;;;;;;4991706;28;20241;-54
2021/12/03 02:37:20;;;;;;;7.93;4.53;;;-1.90;99.90;;;;;;4981052;28;20248;-53
2021/12/03 02:39:50;;;;;;;6.30;4.00;;;-2.00;99.90;;;;;;4972070;28;20654;-54
2021/12/03 02:42:18;;;;;;;10.53;6.00;;;-2.00;99.90;;;;;;4972150;28;20718;-54
2021/12/03 02:44:46;;;;;;;14.60;6.77;;;-2.00;99.90;;;;;;4972319;28;20240;-53
2021/12/03 02:47:14;;;;;;;9.50;4.40;;;-2.00;99.90;;;;;;4972386;28;20266;-53
2021/12/03 02:49:43;;;;;;;7.83;4.57;;;-2.00;99.90;;;;;;4972244;28;20228;-54
2021/12/03 02:52:11;;;;;;;11.63;5.63;;;-2.00;99.90;;;;;;4975364;28;20237;-51
2021/12/03 02:54:41;;;;;;;6.90;4.13;;;-2.10;99.90;;;;;;4992086;28;20207;-53
2021/12/03 02:57:10;;;;;;;4.47;2.97;;;-2.10;99.90;;;;;;4990766;28;20731;-53
2021/12/03 02:59:38;;;;;;;9.10;4.70;;;-2.10;99.90;;;;;;4991452;28;20269;-54
2021/12/03 03:02:06;;;;;;;6.10;3.90;;;-2.20;99.90;;;;;;4991587;28;20264;-55
2021/12/03 03:04:51;;;;;;;5.70;3.87;;;-2.20;99.90;;;;;;4991778;28;20209;-53
2021/12/03 03:07:20;;;;;;;5.47;3.50;;;-2.30;99.90;;;;;;4991151;28;20210;-52
2021/12/03 03:09:48;;;;;;;6.73;3.80;;;-2.20;99.90;;;;;;4991789;28;20253;-53
2021/12/03 03:12:18;;;;;;;5.77;3.80;;;-2.30;99.90;;;;;;4991070;28;20272;-54
2021/12/03 03:14:47;;;;;;;5.77;3.90;;;-2.30;99.90;;;;;;4991919;28;20253;-54
2021/12/03 03:17:15;;;;;;;6.17;4.10;;;-2.30;99.90;;;;;;4991738;28;20214;-54
2021/12/03 03:19:43;;;;;;;7.70;4.17;;;-2.30;99.90;;;;;;4991092;28;20278;-53
2021/12/03 03:22:11;;;;;;;7.50;4.10;;;-2.30;99.90;;;;;;4991387;28;20239;-54
2021/12/03 03:24:39;;;;;;;6.67;4.33;;;-2.30;99.90;;;;;;4991123;28;20258;-52
2021/12/03 03:27:09;;;;;;;5.77;4.00;;;-2.30;99.90;;;;;;4991349;28;20254;-53
2021/12/03 03:29:41;;;;;;;5.07;3.90;;;-2.30;99.90;;;;;;4991375;28;20259;-53
2021/12/03 03:32:10;;;;;;;6.13;4.63;;;-2.40;99.90;;;;;;4991765;28;20300;-53
2021/12/03 03:34:38;;;;;;;7.73;4.77;;;-2.30;99.90;;;;;;4991179;28;20254;-54
2021/12/03 03:37:06;;;;;;;5.83;4.03;;;-2.40;99.90;;;;;;4991077;28;20226;-54
2021/12/03 03:39:34;;;;;;;5.80;4.00;;;-2.40;99.90;;;;;;4991104;28;20276;-54
2021/12/03 03:42:03;;;;;;;7.17;4.63;;;-2.40;99.90;;;;;;4991360;28;20239;-54
2021/12/03 03:44:32;;;;;;;6.60;4.73;;;-2.50;99.90;;;;;;4991612;28;20241;-52
2021/12/03 03:47:01;;;;;;;6.90;4.80;;;-2.50;99.90;;;;;;4992695;28;20249;-54
2021/12/03 03:49:31;;;;;;;18.40;9.97;;;-2.50;99.90;;;;;;4995051;28;20257;-53
2021/12/03 03:51:59;;;;;;;15.70;7.70;;;-2.50;99.90;;;;;;4994490;28;20301;-54
2021/12/03 03:54:27;;;;;;;7.43;4.80;;;-2.40;99.90;;;;;;4995284;28;20244;-53
2021/12/03 03:56:55;;;;;;;6.90;4.20;;;-2.40;99.90;;;;;;4994561;28;20237;-53
2021/12/03 03:59:24;;;;;;;9.23;5.73;;;-2.40;99.90;;;;;;4994803;28;20262;-53
2021/12/03 04:01:53;;;;;;;14.33;7.97;;;-2.50;99.90;;;;;;4994588;28;20253;-53
2021/12/03 04:04:23;;;;;;;16.70;8.93;;;-2.40;99.90;;;;;;4994430;28;20585;-52
2021/12/03 04:06:51;;;;;;;8.23;4.90;;;-2.40;99.90;;;;;;4994089;28;20231;-54
2021/12/03 04:09:20;;;;;;;5.17;4.10;;;-2.40;99.90;;;;;;4994795;28;20261;-54
2021/12/03 04:11:48;;;;;;;7.53;5.00;;;-2.40;99.90;;;;;;4994126;28;20240;-53
2021/12/03 04:14:17;;;;;;;7.90;4.67;;;-2.30;99.90;;;;;;4994235;28;20267;-54
2021/12/03 04:16:45;;;;;;;6.93;4.30;;;-2.30;99.90;;;;;;4994379;28;20301;-54
2021/12/03 04:19:13;;;;;;;6.83;4.80;;;-2.20;99.90;;;;;;4993593;28;20271;-54
2021/12/03 04:21:42;;;;;;;6.00;4.70;;;-2.20;99.90;;;;;;4994326;28;20239;-54
2021/12/03 04:24:10;;;;;;;6.93;4.83;;;-2.20;99.90;;;;;;4994214;28;20237;-52
2021/12/03 04:26:38;;;;;;;11.67;6.13;;;-2.20;99.90;;;;;;4993706;28;20238;-52
2021/12/03 04:29:06;;;;;;;8.17;5.10;;;-2.20;99.90;;;;;;4994083;28;20268;-52
2021/12/03 04:31:35;;;;;;;8.50;5.10;;;-2.20;99.90;;;;;;4994224;28;20260;-53
2021/12/03 04:34:03;;;;;;;7.23;5.13;;;-2.20;99.90;;;;;;4993777;28;20263;-54
2021/12/03 04:36:32;;;;;;;7.93;5.77;;;-2.20;99.90;;;;;;4993638;28;20335;-54
2021/12/03 04:39:01;;;;;;;7.63;5.37;;;-2.10;99.90;;;;;;4993873;28;20238;-54
2021/12/03 04:41:29;;;;;;;14.73;5.80;;;-2.10;99.90;;;;;;4994029;28;20246;-54
2021/12/03 04:43:58;;;;;;;8.17;5.50;;;-2.00;99.90;;;;;;4993821;28;20254;-54
2021/12/03 04:46:26;;;;;;;7.47;5.17;;;-2.00;99.90;;;;;;4993700;28;20665;-54
2021/12/03 04:48:54;;;;;;;9.83;6.93;;;-2.00;99.90;;;;;;4993475;28;20247;-55
2021/12/03 04:51:22;;;;;;;12.10;7.53;;;-1.90;99.90;;;;;;4993406;28;20235;-53
2021/12/03 04:53:50;;;;;;;11.37;7.17;;;-1.80;99.90;;;;;;4993818;28;20630;-53
2021/12/03 04:56:20;;;;;;;12.57;7.40;;;-1.70;99.90;;;;;;4993575;28;20238;-53
2021/12/03 04:58:48;;;;;;;11.90;6.77;;;-1.60;99.90;;;;;;4992567;28;20254;-54
2021/12/03 05:01:16;;;;;;;12.13;6.20;;;-1.50;99.90;;;;;;4993184;28;20274;-54
2021/12/03 05:03:45;;;;;;;9.07;6.13;;;-1.50;99.90;;;;;;4993099;28;20207;-53
2021/12/03 05:06:16;;;;;;;11.43;8.07;;;-1.40;99.90;;;;;;4993185;28;20204;-53
2021/12/03 05:08:44;;;;;;;9.77;6.60;;;-1.30;99.90;;;;;;4993536;28;20207;-53
2021/12/03 05:11:12;;;;;;;9.33;6.60;;;-1.20;99.90;;;;;;4993613;28;20203;-52
2021/12/03 05:13:41;;;;;;;9.73;6.33;;;-1.20;99.90;;;;;;4992918;28;20774;-53
2021/12/03 05:16:09;;;;;;;10.07;6.30;;;-1.20;99.90;;;;;;4993273;28;20235;-51
2021/12/03 05:18:37;;;;;;;13.43;8.60;;;-1.10;99.90;;;;;;4993156;28;20222;-53
2021/12/03 05:21:06;;;;;;;12.07;8.27;;;-1.00;99.90;;;;;;4992992;28;20251;-53
2021/12/03 05:23:34;;;;;;;13.73;8.40;;;-0.90;99.90;;;;;;4992981;28;20243;-53
2021/12/03 05:26:02;;;;;;;14.93;9.27;;;-0.90;99.90;;;;;;4993083;28;20247;-53
2021/12/03 05:28:31;;;;;;;13.77;9.30;;;-0.80;99.90;;;;;;4992445;28;20298;-52
2021/12/03 05:31:00;;;;;;;15.13;10.77;;;-0.70;99.90;;;;;;4993116;28;20220;-54
2021/12/03 05:33:29;;;;;;;15.30;10.20;;;-0.60;99.90;;;;;;4992755;28;20642;-53
2021/12/03 05:35:57;;;;;;;18.80;11.47;;;-0.60;99.90;;;;;;4992952;28;20236;-53
2021/12/03 05:38:25;;;;;;;22.47;13.30;;;-0.50;99.90;;;;;;4992698;28;20240;-52
2021/12/03 05:40:54;;;;;;;21.23;12.70;;;-0.50;99.90;;;;;;4992457;28;20250;-53
2021/12/03 05:43:22;;;;;;;21.40;13.60;;;-0.50;99.90;;;;;;4992420;28;20569;-53
2021/12/03 05:45:50;;;;;;;25.53;15.47;;;-0.40;99.90;;;;;;4992779;28;20258;-54
2021/12/03 05:48:19;;;;;;;24.57;15.33;;;-0.30;99.90;;;;;;4992605;28;20670;-54
2021/12/03 05:50:49;;;;;;;24.03;14.87;;;-0.30;99.90;;;;;;4992298;28;20264;-54
2021/12/03 05:53:17;;;;;;;23.73;15.53;;;-0.30;99.90;;;;;;4991919;28;20242;-53
2021/12/03 05:55:45;;;;;;;26.80;15.40;;;-0.30;99.90;;;;;;4992634;28;20641;-53
2021/12/03 05:58:15;;;;;;;24.03;15.23;;;-0.30;99.90;;;;;;4992453;28;20264;-52
2021/12/03 06:00:43;;;;;;;26.33;16.80;;;-0.30;99.90;;;;;;4992020;28;20328;-53
2021/12/03 06:03:12;;;;;;;31.53;17.37;;;-0.30;99.90;;;;;;4992392;28;20244;-53
2021/12/03 06:05:42;;;;;;;28.57;17.90;;;-0.20;99.90;;;;;;4991603;28;20209;-53
2021/12/03 06:08:10;;;;;;;27.37;16.60;;;-0.20;99.90;;;;;;4992584;28;20239;-55
2021/12/03 06:10:39;;;;;;;29.07;17.07;;;-0.20;99.90;;;;;;4991787;28;20763;-54
2021/12/03 06:13:07;;;;;;;32.03;18.50;;;-0.10;99.90;;;;;;4992030;28;20239;-53
2021/12/03 06:15:35;;;;;;;26.97;16.53;;;-0.10;99.90;;;;;;4992496;28;20208;-53
2021/12/03 06:18:03;;;;;;;26.37;17.37;;;-0.10;99.90;;;;;;4991669;28;20692;-53
2021/12/03 06:20:32;;;;;;;28.00;17.00;;;-0.10;99.90;;;;;;4991524;28;21815;-54
2021/12/03 06:23:01;;;;;;;25.03;15.53;;;-0.10;99.90;;;;;;4991750;28;20677;-53
2021/12/03 06:25:29;;;;;;;27.30;16.87;;;-0.10;99.90;;;;;;4992239;28;20242;-54
2021/12/03 06:27:58;;;;;;;27.20;16.57;;;-0.10;99.90;;;;;;4991773;28;20236;-54
2021/12/03 06:30:27;;;;;;;24.37;16.13;;;-0.10;99.90;;;;;;4991836;28;20282;-54
2021/12/03 06:32:55;;;;;;;23.93;16.13;;;0.00;99.90;;;;;;4991870;28;20732;-55
2021/12/03 06:35:24;;;;;;;24.30;15.93;;;0.00;99.90;;;;;;4991469;28;20303;-55
2021/12/03 06:37:52;;;;;;;28.70;16.77;;;0.10;99.90;;;;;;4991846;28;20209;-52
2021/12/03 06:40:29;;;;;;;25.37;16.70;;;0.10;99.90;;;;;;4991898;28;20698;-54
2021/12/03 06:42:57;;;;;;;25.20;16.03;;;0.10;99.90;;;;;;4975257;28;20269;-54
2021/12/03 06:45:25;;;;;;;25.40;14.90;;;0.10;99.90;;;;;;4991411;28;20246;-55
2021/12/03 06:47:53;;;;;;;23.57;15.97;;;0.10;99.90;;;;;;4991576;28;20257;-54
2021/12/03 06:50:23;;;;;;;26.03;16.63;;;0.10;99.90;;;;;;4990970;28;20308;-53
2021/12/03 06:52:56;;;;;;;28.33;18.73;;;0.10;99.90;;;;;;4991666;28;20200;-52
2021/12/03 06:55:27;;;;;;;27.90;18.40;;;0.10;99.90;;;;;;4991108;28;20247;-54
2021/12/03 06:57:55;;;;;;;28.87;18.33;;;0.10;99.90;;;;;;4991768;28;20251;-53
2021/12/03 07:00:23;;;;;;;33.47;21.77;;;0.10;99.90;;;;;;4991474;28;20311;-53
2021/12/03 07:02:51;;;;;;;34.13;18.27;;;0.10;99.90;;;;;;4991935;28;20231;-53
2021/12/03 07:05:20;;;;;;;30.93;18.27;;;0.10;99.90;;;;;;4991574;28;20672;-55
2021/12/03 07:07:49;;;;;;;25.67;17.80;;;0.10;99.90;;;;;;4991250;28;20252;-54
2021/12/03 07:10:18;;;;;;;28.20;18.43;;;0.20;99.90;;;;;;4991816;28;20666;-54
2021/12/03 07:12:47;;;;;;;30.53;19.03;;;0.20;99.90;;;;;;4991413;28;20239;-54
2021/12/03 07:15:16;;;;;;;34.53;19.30;;;0.20;99.90;;;;;;4991273;28;20267;-54
2021/12/03 07:17:45;;;;;;;29.67;19.43;;;0.20;99.90;;;;;;4991641;28;20350;-54
2021/12/03 07:20:14;;;;;;;32.20;20.00;;;0.30;99.90;;;;;;4991388;28;20317;-53
2021/12/03 07:22:42;;;;;;;32.63;18.40;;;0.30;99.90;;;;;;4994688;28;20255;-53
2021/12/03 07:25:11;;;;;;;28.33;19.10;;;0.30;99.90;;;;;;4995732;28;20254;-53
2021/12/03 07:27:40;;;;;;;33.27;19.70;;;0.40;99.90;;;;;;4994687;28;20711;-53
2021/12/03 07:30:12;;;;;;;33.83;21.00;;;0.40;99.90;;;;;;4995068;28;20267;-54
2021/12/03 07:32:40;;;;;;;33.53;20.27;;;0.40;99.90;;;;;;4995054;28;20204;-53
2021/12/03 07:35:10;;;;;;;34.13;20.77;;;0.50;99.90;;;;;;4995079;28;20299;-53
2021/12/03 07:37:38;;;;;;;31.87;20.57;;;0.50;99.90;;;;;;4994769;28;20307;-55
2021/12/03 07:40:08;;;;;;;30.23;20.37;;;0.50;99.90;;;;;;4994928;28;20235;-53
2021/12/03 07:42:37;;;;;;;37.17;20.80;;;0.50;99.90;;;;;;4995017;28;20257;-54
2021/12/03 07:45:08;;;;;;;35.27;22.00;;;0.50;99.90;;;;;;4994559;28;20251;-55
2021/12/03 07:47:38;;;;;;;34.30;21.13;;;0.50;99.90;;;;;;4984611;28;20268;-54
2021/12/03 07:50:07;;;;;;;37.03;21.57;;;0.60;99.90;;;;;;4989398;28;20718;-54
2021/12/03 07:52:36;;;;;;;33.90;21.13;;;0.70;99.90;;;;;;4994573;28;20222;-54
2021/12/03 07:55:05;;;;;;;34.37;21.27;;;0.70;99.90;;;;;;4994192;28;20213;-54
2021/12/03 07:57:33;;;;;;;33.77;21.23;;;0.80;99.90;;;;;;4994078;28;20250;-52
2021/12/03 08:00:01;;;;;;;36.60;21.77;;;0.90;99.90;;;;;;4994647;28;20267;-53
2021/12/03 08:02:29;;;;;;;34.30;22.23;;;0.90;99.90;;;;;;4994850;28;20264;-53
2021/12/03 08:04:59;;;;;;;38.67;22.93;;;1.00;99.90;;;;;;4994753;28;20212;-54
2021/12/03 08:07:27;;;;;;;34.87;22.13;;;1.00;99.90;;;;;;4994149;28;20232;-53
2021/12/03 08:09:55;;;;;;;35.33;21.60;;;1.00;99.90;;;;;;4994382;28;20266;-53
2021/12/03 08:12:24;;;;;;;30.70;20.57;;;1.10;99.90;;;;;;4993972;28;20238;-54
2021/12/03 08:14:52;;;;;;;35.77;21.23;;;1.00;99.90;;;;;;4994536;28;20656;-53
2021/12/03 08:17:20;;;;;;;34.33;20.67;;;1.10;99.90;;;;;;4994069;28;20249;-54
2021/12/03 08:19:48;;;;;;;31.27;21.43;;;1.10;99.90;;;;;;4994612;28;20230;-54
2021/12/03 08:22:17;;;;;;;34.53;22.07;;;1.10;99.90;;;;;;4993525;28;20309;-54
2021/12/03 08:24:45;;;;;;;31.00;20.60;;;1.10;99.90;;;;;;4994324;28;20300;-54
2021/12/03 08:27:13;;;;;;;35.93;21.17;;;1.00;99.90;;;;;;4993490;28;20257;-53
2021/12/03 08:29:41;;;;;;;32.93;20.90;;;1.10;99.90;;;;;;4994427;28;20283;-54
2021/12/03 08:32:11;;;;;;;32.57;20.73;;;1.10;99.90;;;;;;4994059;28;20619;-53
2021/12/03 08:34:39;;;;;;;30.73;20.30;;;1.10;99.90;;;;;;4994340;28;20249;-53
2021/12/03 08:37:08;;;;;;;33.67;21.10;;;1.10;99.90;;;;;;4993962;28;20624;-53
2021/12/03 08:39:39;;;;;;;31.07;21.60;;;1.10;99.90;;;;;;4993770;28;20268;-55
2021/12/03 08:42:08;;;;;;;32.88;21.60;;;1.10;99.90;;;;;;4993494;28;20539;-54
2021/12/03 08:44:36;;;;;;;34.63;22.10;;;1.20;99.90;;;;;;4993943;28;20289;-53
2021/12/03 08:47:06;;;;;;;31.80;19.97;;;1.30;99.90;;;;;;4993725;28;20217;-52
2021/12/03 08:49:37;;;;;;;30.20;20.47;;;1.30;99.90;;;;;;4993832;28;20265;-54
2021/12/03 08:52:52;;;;;;;32.03;19.87;;;1.30;99.90;;;;;;4993889;28;20221;-54
2021/12/03 08:55:20;;;;;;;27.90;18.83;;;1.30;99.90;;;;;;4993311;28;20688;-53
2021/12/03 08:57:48;;;;;;;33.27;20.40;;;1.30;99.90;;;;;;4993574;28;20238;-54
2021/12/03 09:00:19;;;;;;;30.83;19.03;;;1.30;99.90;;;;;;4993296;28;20273;-54
2021/12/03 09:02:47;;;;;;;29.47;18.93;;;1.30;99.90;;;;;;4993569;28;20272;-54
2021/12/03 09:05:16;;;;;;;26.83;18.03;;;1.40;99.90;;;;;;4992945;28;20245;-53
2021/12/03 09:07:44;;;;;;;30.63;19.37;;;1.40;99.90;;;;;;4993565;28;20230;-54
2021/12/03 09:10:21;;;;;;;27.03;17.93;;;1.40;99.90;;;;;;4993258;28;20718;-55
2021/12/03 09:12:49;;;;;;;27.73;17.67;;;1.40;99.90;;;;;;4992647;28;20624;-55
2021/12/03 09:15:20;;;;;;;32.40;18.70;;;1.40;99.90;;;;;;4977815;28;20289;-54
2021/12/03 09:18:00;;;;;;;27.33;17.93;;;1.40;99.90;;;;;;4992901;28;20256;-55
2021/12/03 09:20:39;;;;;;;27.07;18.03;;;1.40;99.90;;;;;;4992870;28;20230;-54
2021/12/03 09:23:11;;;;;;;29.80;19.03;;;1.40;99.90;;;;;;4992623;28;20226;-52
2021/12/03 09:25:46;;;;;;;32.87;19.80;;;1.40;99.90;;;;;;4993255;28;20209;-53
2021/12/03 09:28:20;;;;;;;26.10;16.60;;;1.40;99.90;;;;;;4977091;28;20586;-54
2021/12/03 09:30:48;;;;;;;25.23;16.97;;;1.50;99.90;;;;;;4992620;28;20230;-55
2021/12/03 09:33:18;;;;;;;29.50;17.33;;;1.50;99.90;;;;;;4992991;28;20237;-54
2021/12/03 09:35:51;;;;;;;28.90;17.50;;;1.60;99.90;;;;;;4992923;28;20216;-55
2021/12/03 09:38:19;;;;;;;23.80;16.37;;;1.70;99.90;;;;;;4991073;28;20210;-55
2021/12/03 09:40:48;;;;;;;24.37;15.90;;;1.70;99.90;;;;;;4992698;28;20265;-55
2021/12/03 09:43:16;;;;;;;25.70;15.90;;;1.60;99.90;;;;;;4992057;28;20313;-55
2021/12/03 09:45:54;;;;;;;25.90;16.37;;;1.60;99.90;;;;;;4992436;28;20250;-54
2021/12/03 09:48:33;;;;;;;25.73;16.87;;;1.60;99.90;;;;;;4992424;28;20233;-54
2021/12/03 09:51:01;;;;;;;27.90;17.80;;;1.60;99.90;;;;;;4992383;28;20230;-54
2021/12/03 09:53:44;;;;;;;24.23;15.73;;;1.70;99.90;;;;;;4992667;28;20231;-55
2021/12/03 09:56:14;;;;;;;24.33;16.67;;;1.70;99.90;;;;;;4992873;28;20242;-54
2021/12/03 10:01:30;;;;;;;26.80;16.30;;;1.70;99.90;;;;;;4990740;28;20264;-55
2021/12/03 10:04:15;;;;;;;26.87;16.10;;;1.60;99.90;;;;;;4992070;28;20306;-54
2021/12/03 10:12:32;;;;;;;32.60;18.20;;;1.80;99.90;;;;;;4979444;28;20296;-54
2021/12/03 10:15:08;;;;;;;30.73;18.57;;;1.80;99.90;;;;;;4991926;28;20227;-55
2021/12/03 10:17:48;;;;;;;28.70;17.73;;;1.70;99.90;;;;;;4992098;28;20250;-55
2021/12/03 10:20:25;;;;;;;28.50;18.60;;;1.70;99.90;;;;;;4991190;28;20660;-54
2021/12/03 10:29:12;;;;;;;32.90;18.83;;;1.70;99.90;;;;;;4991902;28;20718;-54
2021/12/03 10:40:28;;;;;;;28.07;17.63;;;1.70;99.90;;;;;;4991127;28;20714;-55
2021/12/03 10:46:13;;;;;;;27.90;17.87;;;1.70;99.90;;;;;;4965337;28;20234;-54
2021/12/03 10:48:49;;;;;;;28.00;18.30;;;1.70;99.90;;;;;;4991100;28;20230;-55
2021/12/03 10:51:29;;;;;;;27.80;17.60;;;1.70;99.90;;;;;;4991622;28;20266;-55
2021/12/03 10:54:04;;;;;;;27.27;18.98;;;1.70;99.90;;;;;;4990412;28;20937;-55
2021/12/03 10:56:47;;;;;;;28.43;17.47;;;1.80;99.90;;;;;;4993403;28;20280;-54
2021/12/03 10:59:38;;;;;;;29.03;16.57;;;1.80;99.90;;;;;;4995636;28;20227;-55
2021/12/03 11:02:56;;;;;;;24.33;16.57;;;1.90;99.90;;;;;;4996329;28;20241;-54
2021/12/03 11:20:28;;;;;;;21.07;13.33;;;2.00;99.90;;;;;;4975627;28;20285;-55
2021/12/03 12:24:31;;;;;;;15.10;8.90;;;2.60;99.90;;;;;;5067674;28;20213;-55
2021/12/03 13:12:48;;;;;;;10.57;5.17;;;3.10;99.90;;;;;;5010248;28;20711;-55
2021/12/03 14:41:17;;;;;;;6.93;4.20;;;2.70;99.90;;;;;;5009570;28;20234;-55
2021/12/03 14:43:50;;;;;;;5.50;3.60;;;2.80;99.90;;;;;;5087047;28;20250;-54
2021/12/03 14:52:02;;;;;;;8.03;3.70;;;3.00;99.90;;;;;;5091568;28;20216;-56
2021/12/03 14:54:46;;;;;;;8.07;4.40;;;2.90;99.90;;;;;;5090570;28;20436;-54
2021/12/03 14:57:22;;;;;;;5.60;4.03;;;3.10;99.90;;;;;;5075395;28;20225;-56
2021/12/03 15:00:00;;;;;;;5.30;3.30;;;3.00;99.90;;;;;;5088597;28;20749;-55
2021/12/03 15:02:41;;;;;;;6.80;3.73;;;2.90;99.90;;;;;;5091608;28;20251;-55
2021/12/03 15:05:24;;;;;;;8.10;4.10;;;2.90;99.90;;;;;;5073224;28;20258;-54
2021/12/03 15:07:52;;;;;;;7.17;4.07;;;2.80;99.90;;;;;;5080140;28;20256;-54
2021/12/03 15:10:31;;;;;;;8.00;4.00;;;2.80;99.90;;;;;;5071196;28;20256;-54
2021/12/03 15:18:49;;;;;;;8.83;4.53;;;2.60;99.90;;;;;;5088996;28;20653;-54
2021/12/03 15:21:38;;;;;;;8.27;5.20;;;2.60;99.90;;;;;;5090101;28;20231;-55
2021/12/03 15:27:07;;;;;;;10.33;5.03;;;2.50;99.90;;;;;;5090463;28;20759;-53
2021/12/03 15:32:34;;;;;;;7.97;5.60;;;2.50;99.90;;;;;;5051503;28;20236;-54
2021/12/03 15:35:08;;;;;;;8.53;5.80;;;2.40;99.90;;;;;;5090993;28;20261;-53
2021/12/03 15:38:00;;;;;;;11.27;6.60;;;2.40;99.90;;;;;;5091256;28;20184;-53
2021/12/03 16:08:25;;;;;;;13.90;9.20;;;2.20;99.90;;;;;;5089996;28;20265;-53
2021/12/03 16:11:03;;;;;;;13.60;9.80;;;2.20;99.90;;;;;;5090405;28;20235;-55
2021/12/03 16:13:44;;;;;;;17.47;10.53;;;2.20;99.90;;;;;;5090424;28;20232;-54
2021/12/03 16:19:18;;;;;;;15.30;10.47;;;2.20;99.90;;;;;;5090574;28;20204;-53
2021/12/03 16:22:09;;;;;;;19.03;11.53;;;2.10;99.90;;;;;;5090625;28;20235;-54
2021/12/03 16:44:41;;;;;;;17.87;13.90;;;1.90;99.90;;;;;;5094054;28;20204;-54
2021/12/03 16:47:20;;;;;;;20.27;13.90;;;1.90;99.90;;;;;;5094156;28;20266;-54
2021/12/03 16:52:39;;;;;;;19.77;13.73;;;1.90;99.90;;;;;;5094297;28;20238;-55
2021/12/03 16:55:14;;;;;;;23.07;13.90;;;1.90;99.90;;;;;;5093846;28;20204;-53
2021/12/03 16:57:44;;;;;;;22.37;14.97;;;1.90;99.90;;;;;;5093693;28;20250;-54
2021/12/03 17:00:20;;;;;;;19.93;14.33;;;1.90;99.90;;;;;;5094199;28;20273;-54
2021/12/03 17:02:53;;;;;;;21.53;13.27;;;1.80;99.90;;;;;;5093754;28;20260;-54
2021/12/03 17:11:32;;;;;;;21.70;14.10;;;1.80;99.90;;;;;;5094009;28;20673;-54
2021/12/03 17:14:07;;;;;;;22.90;14.73;;;1.80;99.90;;;;;;5093158;28;20204;-54
2021/12/03 17:45:05;;;;;;;21.03;13.70;;;1.90;99.90;;;;;;5092683;28;20768;-55
2021/12/03 17:50:43;;;;;;;21.83;13.97;;;1.90;99.90;;;;;;5089405;28;20662;-53
2021/12/03 17:53:32;;;;;;;18.97;14.03;;;1.90;99.90;;;;;;5080864;28;20682;-54
2021/12/03 17:56:06;;;;;;;22.67;14.33;;;1.90;99.90;;;;;;5072597;28;20705;-55
2021/12/03 17:58:36;;;;;;;19.83;14.07;;;1.90;99.90;;;;;;5072854;28;20211;-54
2021/12/03 18:01:10;;;;;;;23.83;15.07;;;1.90;99.90;;;;;;5072181;28;20308;-54
2021/12/03 18:03:45;;;;;;;25.43;15.43;;;1.90;99.90;;;;;;5082132;28;20214;-54
2021/12/03 18:09:09;;;;;;;23.27;14.53;;;2.00;99.90;;;;;;5082930;28;20824;-54
2021/12/03 18:15:02;;;;;;;21.07;14.97;;;1.90;99.90;;;;;;5087876;27;20611;-55
2021/12/03 18:51:22;;;;;;;18.83;13.60;;;2.00;99.90;;;;;;5084789;28;20227;-56
2021/12/03 18:56:42;;;;;;;19.07;14.37;;;2.00;99.90;;;;;;5063600;28;20283;-55
2021/12/03 18:59:11;;;;;;;21.27;14.17;;;1.90;99.90;;;;;;5067638;28;20217;-55
2021/12/03 19:01:44;;;;;;;20.77;14.00;;;1.90;99.90;;;;;;5077493;28;20240;-56
2021/12/03 19:04:19;;;;;;;21.93;15.33;;;1.90;99.90;;;;;;5085870;28;20196;-53
2021/12/03 19:06:51;;;;;;;20.00;14.17;;;1.80;99.90;;;;;;5067112;28;20280;-55
2021/12/03 19:09:23;;;;;;;21.67;14.80;;;1.80;99.90;;;;;;5067639;28;20252;-55
2021/12/03 19:12:01;;;;;;;21.77;14.30;;;1.80;99.90;;;;;;5067093;28;20243;-56
2021/12/03 19:14:33;;;;;;;19.27;14.53;;;1.80;99.90;;;;;;5067297;28;20221;-55
2021/12/03 19:17:01;;;;;;;19.97;15.13;;;1.90;99.90;;;;;;5064701;28;20240;-56
2021/12/03 19:19:33;;;;;;;18.57;13.83;;;1.80;99.90;;;;;;5068308;28;20325;-56
2021/12/03 19:22:04;;;;;;;21.40;14.67;;;1.80;99.90;;;;;;5086120;28;20288;-54
2021/12/03 19:24:32;;;;;;;18.47;14.73;;;1.80;99.90;;;;;;5079430;28;20252;-55